sensor_id;sensor_type;location;lat;lon;timestamp;P1;durP1;ratioP1;P2;durP2;ratioP2
66112;SDS011;52893;52.870;5.822;2022-07-29T00:01:48;2.90;;;0.70;;
66112;SDS011;52893;52.870;5.822;2022-07-29T00:04:17;4.00;;;0.90;;
66112;SDS011;52893;52.870;5.822;2022-07-29T00:06:45;4.50;;;0.80;;
66112;SDS011;52893;52.870;5.822;2022-07-29T00:09:12;1.33;;;0.93;;
66112;SDS011;52893;52.870;5.822;2022-07-29T00:11:39;1.85;;;0.82;;
66112;SDS011;52893;52.870;5.822;2022-07-29T00:14:06;2.03;;;0.82;;
66112;SDS011;52893;52.870;5.822;2022-07-29T00:16:33;1.38;;;0.60;;
66112;SDS011;52893;52.870;5.822;2022-07-29T00:19:02;1.17;;;0.77;;
66112;SDS011;52893;52.870;5.822;2022-07-29T00:21:29;4.40;;;1.10;;
66112;SDS011;52893;52.870;5.822;2022-07-29T00:23:57;2.95;;;0.93;;
66112;SDS011;52893;52.870;5.822;2022-07-29T00:26:24;2.03;;;0.80;;
66112;SDS011;52893;52.870;5.822;2022-07-29T00:28:53;3.47;;;1.00;;
66112;SDS011;52893;52.870;5.822;2022-07-29T00:31:20;2.22;;;0.93;;
66112;SDS011;52893;52.870;5.822;2022-07-29T00:33:47;0.88;;;0.73;;
66112;SDS011;52893;52.870;5.822;2022-07-29T00:36:15;3.45;;;0.70;;
66112;SDS011;52893;52.870;5.822;2022-07-29T00:38:41;2.78;;;0.73;;
66112;SDS011;52893;52.870;5.822;2022-07-29T00:41:10;3.95;;;0.90;;
66112;SDS011;52893;52.870;5.822;2022-07-29T00:43:38;1.65;;;0.80;;
66112;SDS011;52893;52.870;5.822;2022-07-29T00:46:06;1.95;;;1.00;;
66112;SDS011;52893;52.870;5.822;2022-07-29T00:48:33;1.80;;;0.82;;
66112;SDS011;52893;52.870;5.822;2022-07-29T00:51:01;2.75;;;1.00;;
66112;SDS011;52893;52.870;5.822;2022-07-29T00:53:30;4.55;;;0.90;;
66112;SDS011;52893;52.870;5.822;2022-07-29T00:55:58;1.10;;;0.80;;
66112;SDS011;52893;52.870;5.822;2022-07-29T00:58:25;4.07;;;1.15;;
66112;SDS011;52893;52.870;5.822;2022-07-29T01:00:53;3.30;;;0.90;;
66112;SDS011;52893;52.870;5.822;2022-07-29T01:03:20;2.60;;;1.15;;
66112;SDS011;52893;52.870;5.822;2022-07-29T01:05:47;1.90;;;0.80;;
66112;SDS011;52893;52.870;5.822;2022-07-29T01:08:15;1.88;;;0.93;;
66112;SDS011;52893;52.870;5.822;2022-07-29T01:10:44;2.17;;;0.80;;
66112;SDS011;52893;52.870;5.822;2022-07-29T01:13:12;3.20;;;1.15;;
66112;SDS011;52893;52.870;5.822;2022-07-29T01:15:42;2.00;;;0.77;;
66112;SDS011;52893;52.870;5.822;2022-07-29T01:18:14;2.15;;;0.80;;
66112;SDS011;52893;52.870;5.822;2022-07-29T01:26:18;4.93;;;1.13;;
66112;SDS011;52893;52.870;5.822;2022-07-29T01:29:07;2.17;;;0.95;;
66112;SDS011;52893;52.870;5.822;2022-07-29T01:31:42;1.92;;;1.13;;
66112;SDS011;52893;52.870;5.822;2022-07-29T01:34:16;2.13;;;0.98;;
66112;SDS011;52893;52.870;5.822;2022-07-29T01:36:48;1.92;;;1.27;;
66112;SDS011;52893;52.870;5.822;2022-07-29T01:39:19;1.73;;;1.17;;
66112;SDS011;52893;52.870;5.822;2022-07-29T01:41:55;6.03;;;1.33;;
66112;SDS011;52893;52.870;5.822;2022-07-29T01:44:30;5.13;;;1.40;;
66112;SDS011;52893;52.870;5.822;2022-07-29T01:47:00;2.97;;;1.30;;
66112;SDS011;52893;52.870;5.822;2022-07-29T01:49:33;3.57;;;1.47;;
66112;SDS011;52893;52.870;5.822;2022-07-29T01:52:03;2.08;;;1.00;;
66112;SDS011;52893;52.870;5.822;2022-07-29T01:54:35;4.55;;;1.20;;
66112;SDS011;52893;52.870;5.822;2022-07-29T01:57:09;1.92;;;1.20;;
66112;SDS011;52893;52.870;5.822;2022-07-29T01:59:40;2.25;;;1.40;;
66112;SDS011;52893;52.870;5.822;2022-07-29T02:02:10;1.45;;;1.10;;
66112;SDS011;52893;52.870;5.822;2022-07-29T02:04:38;1.88;;;1.38;;
66112;SDS011;52893;52.870;5.822;2022-07-29T02:07:07;1.90;;;1.23;;
66112;SDS011;52893;52.870;5.822;2022-07-29T02:09:37;2.58;;;1.60;;
66112;SDS011;52893;52.870;5.822;2022-07-29T02:12:06;1.42;;;1.20;;
66112;SDS011;52893;52.870;5.822;2022-07-29T02:14:36;5.60;;;1.60;;
66112;SDS011;52893;52.870;5.822;2022-07-29T02:17:06;4.53;;;1.25;;
66112;SDS011;52893;52.870;5.822;2022-07-29T02:19:33;2.28;;;1.25;;
66112;SDS011;52893;52.870;5.822;2022-07-29T02:22:03;2.65;;;1.25;;
66112;SDS011;52893;52.870;5.822;2022-07-29T02:24:32;1.90;;;1.25;;
66112;SDS011;52893;52.870;5.822;2022-07-29T02:27:02;1.70;;;1.20;;
66112;SDS011;52893;52.870;5.822;2022-07-29T02:29:30;2.63;;;1.80;;
66112;SDS011;52893;52.870;5.822;2022-07-29T02:32:01;4.80;;;1.40;;
66112;SDS011;52893;52.870;5.822;2022-07-29T02:34:31;4.20;;;1.70;;
66112;SDS011;52893;52.870;5.822;2022-07-29T02:37:01;2.20;;;1.50;;
66112;SDS011;52893;52.870;5.822;2022-07-29T02:39:29;4.05;;;1.40;;
66112;SDS011;52893;52.870;5.822;2022-07-29T02:41:59;2.15;;;1.45;;
66112;SDS011;52893;52.870;5.822;2022-07-29T02:44:30;3.38;;;1.33;;
66112;SDS011;52893;52.870;5.822;2022-07-29T02:46:59;3.40;;;1.25;;
66112;SDS011;52893;52.870;5.822;2022-07-29T02:49:34;2.08;;;1.35;;
66112;SDS011;52893;52.870;5.822;2022-07-29T02:52:04;2.47;;;1.17;;
66112;SDS011;52893;52.870;5.822;2022-07-29T02:54:37;6.47;;;1.60;;
66112;SDS011;52893;52.870;5.822;2022-07-29T02:57:09;3.07;;;1.30;;
66112;SDS011;52893;52.870;5.822;2022-07-29T02:59:41;1.88;;;1.27;;
66112;SDS011;52893;52.870;5.822;2022-07-29T03:02:12;2.63;;;1.50;;
66112;SDS011;52893;52.870;5.822;2022-07-29T03:04:42;4.63;;;1.48;;
66112;SDS011;52893;52.870;5.822;2022-07-29T03:07:11;3.08;;;1.17;;
66112;SDS011;52893;52.870;5.822;2022-07-29T03:09:40;4.90;;;1.58;;
66112;SDS011;52893;52.870;5.822;2022-07-29T03:12:09;4.13;;;1.70;;
66112;SDS011;52893;52.870;5.822;2022-07-29T03:14:37;3.30;;;1.30;;
66112;SDS011;52893;52.870;5.822;2022-07-29T03:17:05;3.35;;;1.30;;
66112;SDS011;52893;52.870;5.822;2022-07-29T03:19:32;3.90;;;1.40;;
66112;SDS011;52893;52.870;5.822;2022-07-29T03:22:02;6.00;;;1.30;;
66112;SDS011;52893;52.870;5.822;2022-07-29T03:24:32;8.27;;;1.48;;
66112;SDS011;52893;52.870;5.822;2022-07-29T03:27:01;2.70;;;1.30;;
66112;SDS011;52893;52.870;5.822;2022-07-29T03:29:28;2.70;;;1.50;;
66112;SDS011;52893;52.870;5.822;2022-07-29T03:31:55;2.70;;;1.33;;
66112;SDS011;52893;52.870;5.822;2022-07-29T03:34:23;5.32;;;1.60;;
66112;SDS011;52893;52.870;5.822;2022-07-29T03:36:50;1.70;;;1.20;;
66112;SDS011;52893;52.870;5.822;2022-07-29T03:39:19;4.90;;;1.73;;
66112;SDS011;52893;52.870;5.822;2022-07-29T03:41:49;8.90;;;1.75;;
66112;SDS011;52893;52.870;5.822;2022-07-29T03:44:21;3.25;;;1.20;;
66112;SDS011;52893;52.870;5.822;2022-07-29T03:46:50;3.33;;;1.10;;
66112;SDS011;52893;52.870;5.822;2022-07-29T03:49:20;8.20;;;1.40;;
66112;SDS011;52893;52.870;5.822;2022-07-29T03:51:50;5.15;;;1.40;;
66112;SDS011;52893;52.870;5.822;2022-07-29T03:54:19;2.42;;;1.27;;
66112;SDS011;52893;52.870;5.822;2022-07-29T03:56:46;4.05;;;1.42;;
66112;SDS011;52893;52.870;5.822;2022-07-29T03:59:15;8.02;;;1.42;;
66112;SDS011;52893;52.870;5.822;2022-07-29T04:01:45;11.20;;;1.75;;
66112;SDS011;52893;52.870;5.822;2022-07-29T04:04:13;7.30;;;1.52;;
66112;SDS011;52893;52.870;5.822;2022-07-29T04:06:40;5.35;;;1.42;;
66112;SDS011;52893;52.870;5.822;2022-07-29T04:09:08;3.22;;;1.55;;
66112;SDS011;52893;52.870;5.822;2022-07-29T04:11:37;3.17;;;1.50;;
66112;SDS011;52893;52.870;5.822;2022-07-29T04:14:05;2.80;;;1.27;;
66112;SDS011;52893;52.870;5.822;2022-07-29T04:16:32;4.72;;;1.58;;
66112;SDS011;52893;52.870;5.822;2022-07-29T04:18:59;4.95;;;1.23;;
66112;SDS011;52893;52.870;5.822;2022-07-29T04:21:27;2.70;;;1.48;;
66112;SDS011;52893;52.870;5.822;2022-07-29T04:23:54;2.35;;;1.40;;
66112;SDS011;52893;52.870;5.822;2022-07-29T04:26:21;2.67;;;1.42;;
66112;SDS011;52893;52.870;5.822;2022-07-29T04:28:49;4.88;;;1.52;;
66112;SDS011;52893;52.870;5.822;2022-07-29T04:31:16;3.13;;;1.60;;
66112;SDS011;52893;52.870;5.822;2022-07-29T04:33:43;2.38;;;1.48;;
66112;SDS011;52893;52.870;5.822;2022-07-29T04:36:10;3.17;;;1.60;;
66112;SDS011;52893;52.870;5.822;2022-07-29T04:38:38;5.70;;;1.73;;
66112;SDS011;52893;52.870;5.822;2022-07-29T04:41:05;9.88;;;2.15;;
66112;SDS011;52893;52.870;5.822;2022-07-29T04:43:33;1.98;;;1.20;;
66112;SDS011;52893;52.870;5.822;2022-07-29T04:46:02;3.10;;;1.40;;
66112;SDS011;52893;52.870;5.822;2022-07-29T04:48:30;3.13;;;1.23;;
66112;SDS011;52893;52.870;5.822;2022-07-29T04:50:57;1.40;;;1.23;;
66112;SDS011;52893;52.870;5.822;2022-07-29T04:53:25;2.60;;;1.33;;
66112;SDS011;52893;52.870;5.822;2022-07-29T04:55:52;5.28;;;1.25;;
66112;SDS011;52893;52.870;5.822;2022-07-29T04:58:19;4.63;;;1.30;;
66112;SDS011;52893;52.870;5.822;2022-07-29T05:00:48;5.28;;;1.35;;
66112;SDS011;52893;52.870;5.822;2022-07-29T05:03:17;4.72;;;1.63;;
66112;SDS011;52893;52.870;5.822;2022-07-29T05:05:45;5.13;;;1.35;;
66112;SDS011;52893;52.870;5.822;2022-07-29T05:08:12;7.22;;;1.85;;
66112;SDS011;52893;52.870;5.822;2022-07-29T05:10:39;3.58;;;1.42;;
66112;SDS011;52893;52.870;5.822;2022-07-29T05:13:06;3.42;;;1.40;;
66112;SDS011;52893;52.870;5.822;2022-07-29T05:15:34;1.27;;;1.17;;
66112;SDS011;52893;52.870;5.822;2022-07-29T05:18:02;4.65;;;1.58;;
66112;SDS011;52893;52.870;5.822;2022-07-29T05:20:30;2.88;;;1.20;;
66112;SDS011;52893;52.870;5.822;2022-07-29T05:23:00;4.05;;;1.20;;
66112;SDS011;52893;52.870;5.822;2022-07-29T05:25:28;2.63;;;1.42;;
66112;SDS011;52893;52.870;5.822;2022-07-29T05:27:56;2.97;;;1.60;;
66112;SDS011;52893;52.870;5.822;2022-07-29T05:30:23;4.45;;;1.23;;
66112;SDS011;52893;52.870;5.822;2022-07-29T05:32:50;2.67;;;1.33;;
66112;SDS011;52893;52.870;5.822;2022-07-29T05:35:17;2.95;;;1.30;;
66112;SDS011;52893;52.870;5.822;2022-07-29T05:37:46;5.10;;;1.45;;
66112;SDS011;52893;52.870;5.822;2022-07-29T05:40:13;6.05;;;1.50;;
66112;SDS011;52893;52.870;5.822;2022-07-29T05:42:40;4.70;;;1.30;;
66112;SDS011;52893;52.870;5.822;2022-07-29T05:45:08;3.40;;;1.40;;
66112;SDS011;52893;52.870;5.822;2022-07-29T05:47:35;1.98;;;1.20;;
66112;SDS011;52893;52.870;5.822;2022-07-29T05:50:03;1.98;;;1.10;;
66112;SDS011;52893;52.870;5.822;2022-07-29T05:52:30;4.63;;;1.30;;
66112;SDS011;52893;52.870;5.822;2022-07-29T05:54:59;6.43;;;1.35;;
66112;SDS011;52893;52.870;5.822;2022-07-29T05:57:29;6.13;;;1.30;;
66112;SDS011;52893;52.870;5.822;2022-07-29T05:59:56;3.70;;;1.25;;
66112;SDS011;52893;52.870;5.822;2022-07-29T06:02:24;3.95;;;1.10;;
66112;SDS011;52893;52.870;5.822;2022-07-29T06:04:51;3.60;;;1.00;;
66112;SDS011;52893;52.870;5.822;2022-07-29T06:07:18;2.03;;;1.30;;
66112;SDS011;52893;52.870;5.822;2022-07-29T06:09:45;3.30;;;1.25;;
66112;SDS011;52893;52.870;5.822;2022-07-29T06:12:14;3.85;;;1.30;;
66112;SDS011;52893;52.870;5.822;2022-07-29T06:14:41;3.78;;;1.27;;
66112;SDS011;52893;52.870;5.822;2022-07-29T06:17:08;6.20;;;1.33;;
66112;SDS011;52893;52.870;5.822;2022-07-29T06:19:37;3.33;;;1.25;;
66112;SDS011;52893;52.870;5.822;2022-07-29T06:22:04;3.25;;;1.10;;
66112;SDS011;52893;52.870;5.822;2022-07-29T06:24:31;2.88;;;1.10;;
66112;SDS011;52893;52.870;5.822;2022-07-29T06:26:58;1.70;;;1.00;;
66112;SDS011;52893;52.870;5.822;2022-07-29T06:29:27;2.97;;;1.20;;
66112;SDS011;52893;52.870;5.822;2022-07-29T06:31:54;6.43;;;1.38;;
66112;SDS011;52893;52.870;5.822;2022-07-29T06:34:21;3.78;;;1.45;;
66112;SDS011;52893;52.870;5.822;2022-07-29T06:36:48;1.60;;;0.90;;
66112;SDS011;52893;52.870;5.822;2022-07-29T06:39:16;4.53;;;1.33;;
66112;SDS011;52893;52.870;5.822;2022-07-29T06:41:45;5.28;;;1.10;;
66112;SDS011;52893;52.870;5.822;2022-07-29T06:44:13;4.03;;;1.38;;
66112;SDS011;52893;52.870;5.822;2022-07-29T06:46:42;11.85;;;1.50;;
66112;SDS011;52893;52.870;5.822;2022-07-29T06:49:09;6.63;;;1.17;;
66112;SDS011;52893;52.870;5.822;2022-07-29T06:51:38;2.90;;;1.15;;
66112;SDS011;52893;52.870;5.822;2022-07-29T06:54:05;4.80;;;1.30;;
66112;SDS011;52893;52.870;5.822;2022-07-29T06:56:32;2.72;;;1.30;;
66112;SDS011;52893;52.870;5.822;2022-07-29T06:59:01;3.65;;;1.55;;
66112;SDS011;52893;52.870;5.822;2022-07-29T07:01:28;3.35;;;1.20;;
66112;SDS011;52893;52.870;5.822;2022-07-29T07:03:56;3.38;;;1.27;;
66112;SDS011;52893;52.870;5.822;2022-07-29T07:06:23;2.08;;;1.00;;
66112;SDS011;52893;52.870;5.822;2022-07-29T07:08:50;4.28;;;1.20;;
66112;SDS011;52893;52.870;5.822;2022-07-29T07:11:17;3.72;;;1.60;;
66112;SDS011;52893;52.870;5.822;2022-07-29T07:13:45;6.35;;;1.33;;
66112;SDS011;52893;52.870;5.822;2022-07-29T07:16:12;4.47;;;1.30;;
66112;SDS011;52893;52.870;5.822;2022-07-29T07:18:39;4.00;;;1.23;;
66112;SDS011;52893;52.870;5.822;2022-07-29T07:21:07;5.22;;;1.20;;
66112;SDS011;52893;52.870;5.822;2022-07-29T07:23:34;4.75;;;1.50;;
66112;SDS011;52893;52.870;5.822;2022-07-29T07:26:02;7.78;;;1.58;;
66112;SDS011;52893;52.870;5.822;2022-07-29T07:28:31;4.85;;;1.38;;
66112;SDS011;52893;52.870;5.822;2022-07-29T07:30:58;5.85;;;1.48;;
66112;SDS011;52893;52.870;5.822;2022-07-29T07:33:25;5.50;;;1.45;;
66112;SDS011;52893;52.870;5.822;2022-07-29T07:35:52;3.88;;;1.20;;
66112;SDS011;52893;52.870;5.822;2022-07-29T07:38:21;2.35;;;1.50;;
66112;SDS011;52893;52.870;5.822;2022-07-29T07:40:48;7.95;;;1.25;;
66112;SDS011;52893;52.870;5.822;2022-07-29T07:43:15;3.08;;;1.58;;
66112;SDS011;52893;52.870;5.822;2022-07-29T07:45:42;3.50;;;1.55;;
66112;SDS011;52893;52.870;5.822;2022-07-29T07:48:09;7.38;;;1.60;;
66112;SDS011;52893;52.870;5.822;2022-07-29T07:50:36;3.47;;;1.60;;
66112;SDS011;52893;52.870;5.822;2022-07-29T07:53:03;4.88;;;1.30;;
66112;SDS011;52893;52.870;5.822;2022-07-29T07:55:32;7.35;;;1.48;;
66112;SDS011;52893;52.870;5.822;2022-07-29T07:57:59;4.45;;;1.40;;
66112;SDS011;52893;52.870;5.822;2022-07-29T08:00:27;4.30;;;1.60;;
66112;SDS011;52893;52.870;5.822;2022-07-29T08:02:54;1.92;;;1.42;;
66112;SDS011;52893;52.870;5.822;2022-07-29T08:05:21;4.78;;;1.30;;
66112;SDS011;52893;52.870;5.822;2022-07-29T08:07:48;5.97;;;1.60;;
66112;SDS011;52893;52.870;5.822;2022-07-29T08:10:15;8.43;;;1.63;;
66112;SDS011;52893;52.870;5.822;2022-07-29T08:13:06;2.67;;;1.35;;
66112;SDS011;52893;52.870;5.822;2022-07-29T08:15:34;3.60;;;1.45;;
66112;SDS011;52893;52.870;5.822;2022-07-29T08:18:02;4.72;;;1.70;;
66112;SDS011;52893;52.870;5.822;2022-07-29T08:20:29;8.15;;;1.77;;
66112;SDS011;52893;52.870;5.822;2022-07-29T08:22:57;4.82;;;1.60;;
66112;SDS011;52893;52.870;5.822;2022-07-29T08:25:24;7.05;;;1.55;;
66112;SDS011;52893;52.870;5.822;2022-07-29T08:27:51;6.07;;;2.65;;
66112;SDS011;52893;52.870;5.822;2022-07-29T08:30:20;5.18;;;1.80;;
66112;SDS011;52893;52.870;5.822;2022-07-29T08:32:47;13.52;;;1.90;;
66112;SDS011;52893;52.870;5.822;2022-07-29T08:35:16;2.20;;;1.48;;
66112;SDS011;52893;52.870;5.822;2022-07-29T08:37:43;4.53;;;1.80;;
66112;SDS011;52893;52.870;5.822;2022-07-29T08:40:10;2.67;;;1.70;;
66112;SDS011;52893;52.870;5.822;2022-07-29T08:42:37;3.63;;;1.58;;
66112;SDS011;52893;52.870;5.822;2022-07-29T08:45:05;6.75;;;1.80;;
66112;SDS011;52893;52.870;5.822;2022-07-29T08:47:34;6.45;;;1.70;;
66112;SDS011;52893;52.870;5.822;2022-07-29T08:50:05;4.07;;;1.73;;
66112;SDS011;52893;52.870;5.822;2022-07-29T08:52:34;5.93;;;1.80;;
66112;SDS011;52893;52.870;5.822;2022-07-29T08:55:03;6.00;;;1.60;;
66112;SDS011;52893;52.870;5.822;2022-07-29T08:57:31;5.25;;;1.42;;
66112;SDS011;52893;52.870;5.822;2022-07-29T09:00:00;4.18;;;1.85;;
66112;SDS011;52893;52.870;5.822;2022-07-29T09:02:29;3.55;;;1.50;;
66112;SDS011;52893;52.870;5.822;2022-07-29T09:05:03;8.68;;;1.60;;
66112;SDS011;52893;52.870;5.822;2022-07-29T09:07:31;7.90;;;1.80;;
66112;SDS011;52893;52.870;5.822;2022-07-29T09:09:59;7.22;;;1.73;;
66112;SDS011;52893;52.870;5.822;2022-07-29T09:12:26;7.55;;;1.67;;
66112;SDS011;52893;52.870;5.822;2022-07-29T09:14:53;4.07;;;1.63;;
66112;SDS011;52893;52.870;5.822;2022-07-29T09:20:09;6.57;;;1.73;;
66112;SDS011;52893;52.870;5.822;2022-07-29T09:22:37;2.40;;;1.50;;
66112;SDS011;52893;52.870;5.822;2022-07-29T09:25:05;6.65;;;1.50;;
66112;SDS011;52893;52.870;5.822;2022-07-29T09:27:32;4.85;;;1.50;;
66112;SDS011;52893;52.870;5.822;2022-07-29T09:30:00;11.45;;;1.33;;
66112;SDS011;52893;52.870;5.822;2022-07-29T09:32:29;5.43;;;1.55;;
66112;SDS011;52893;52.870;5.822;2022-07-29T09:35:20;3.38;;;1.50;;
66112;SDS011;52893;52.870;5.822;2022-07-29T09:37:49;7.53;;;1.77;;
66112;SDS011;52893;52.870;5.822;2022-07-29T09:40:16;3.83;;;1.40;;
66112;SDS011;52893;52.870;5.822;2022-07-29T09:42:45;4.28;;;1.60;;
66112;SDS011;52893;52.870;5.822;2022-07-29T09:45:13;3.30;;;1.52;;
66112;SDS011;52893;52.870;5.822;2022-07-29T09:47:53;6.03;;;1.60;;
66112;SDS011;52893;52.870;5.822;2022-07-29T09:50:34;1.85;;;1.40;;
66112;SDS011;52893;52.870;5.822;2022-07-29T09:53:02;3.95;;;1.50;;
66112;SDS011;52893;52.870;5.822;2022-07-29T09:55:29;5.30;;;1.80;;
66112;SDS011;52893;52.870;5.822;2022-07-29T10:00:42;3.35;;;1.70;;
66112;SDS011;52893;52.870;5.822;2022-07-29T10:03:10;2.25;;;1.23;;
66112;SDS011;52893;52.870;5.822;2022-07-29T10:05:39;4.53;;;1.75;;
66112;SDS011;52893;52.870;5.822;2022-07-29T10:08:07;5.25;;;1.83;;
66112;SDS011;52893;52.870;5.822;2022-07-29T10:10:37;4.20;;;1.75;;
66112;SDS011;52893;52.870;5.822;2022-07-29T10:13:06;5.05;;;1.83;;
66112;SDS011;52893;52.870;5.822;2022-07-29T10:15:36;3.10;;;1.73;;
66112;SDS011;52893;52.870;5.822;2022-07-29T10:18:06;7.22;;;1.40;;
66112;SDS011;52893;52.870;5.822;2022-07-29T10:20:34;5.55;;;1.50;;
66112;SDS011;52893;52.870;5.822;2022-07-29T10:23:03;4.60;;;1.88;;
66112;SDS011;52893;52.870;5.822;2022-07-29T10:25:31;2.90;;;1.63;;
66112;SDS011;52893;52.870;5.822;2022-07-29T10:27:58;4.32;;;1.80;;
66112;SDS011;52893;52.870;5.822;2022-07-29T10:30:26;8.13;;;1.65;;
66112;SDS011;52893;52.870;5.822;2022-07-29T10:32:59;2.88;;;1.70;;
66112;SDS011;52893;52.870;5.822;2022-07-29T10:35:44;5.53;;;1.65;;
66112;SDS011;52893;52.870;5.822;2022-07-29T10:38:27;6.07;;;1.85;;
66112;SDS011;52893;52.870;5.822;2022-07-29T10:41:11;8.68;;;1.88;;
66112;SDS011;52893;52.870;5.822;2022-07-29T10:43:54;6.13;;;1.77;;
66112;SDS011;52893;52.870;5.822;2022-07-29T10:46:24;5.50;;;1.20;;
66112;SDS011;52893;52.870;5.822;2022-07-29T10:49:05;11.07;;;1.90;;
66112;SDS011;52893;52.870;5.822;2022-07-29T10:57:11;4.15;;;1.75;;
66112;SDS011;52893;52.870;5.822;2022-07-29T10:59:39;6.15;;;2.00;;
66112;SDS011;52893;52.870;5.822;2022-07-29T11:05:09;5.20;;;1.83;;
66112;SDS011;52893;52.870;5.822;2022-07-29T11:07:38;6.55;;;1.85;;
66112;SDS011;52893;52.870;5.822;2022-07-29T11:12:57;3.67;;;1.95;;
66112;SDS011;52893;52.870;5.822;2022-07-29T11:15:24;6.20;;;1.95;;
66112;SDS011;52893;52.870;5.822;2022-07-29T11:18:07;4.80;;;1.90;;
66112;SDS011;52893;52.870;5.822;2022-07-29T11:20:38;7.85;;;2.40;;
66112;SDS011;52893;52.870;5.822;2022-07-29T11:23:17;7.93;;;2.20;;
66112;SDS011;52893;52.870;5.822;2022-07-29T11:25:46;3.30;;;1.80;;
66112;SDS011;52893;52.870;5.822;2022-07-29T11:28:42;7.38;;;2.08;;
66112;SDS011;52893;52.870;5.822;2022-07-29T11:31:19;5.35;;;1.80;;
66112;SDS011;52893;52.870;5.822;2022-07-29T11:39:37;4.70;;;2.03;;
66112;SDS011;52893;52.870;5.822;2022-07-29T11:45:12;4.25;;;1.85;;
66112;SDS011;52893;52.870;5.822;2022-07-29T11:47:42;11.20;;;2.25;;
66112;SDS011;52893;52.870;5.822;2022-07-29T11:50:15;7.20;;;2.35;;
66112;SDS011;52893;52.870;5.822;2022-07-29T11:52:54;6.10;;;2.25;;
66112;SDS011;52893;52.870;5.822;2022-07-29T11:55:21;6.28;;;1.95;;
66112;SDS011;52893;52.870;5.822;2022-07-29T11:57:51;7.22;;;2.00;;
66112;SDS011;52893;52.870;5.822;2022-07-29T12:00:22;4.13;;;1.80;;
66112;SDS011;52893;52.870;5.822;2022-07-29T12:02:50;3.08;;;1.73;;
66112;SDS011;52893;52.870;5.822;2022-07-29T12:05:18;4.47;;;2.20;;
66112;SDS011;52893;52.870;5.822;2022-07-29T12:07:45;5.00;;;2.15;;
66112;SDS011;52893;52.870;5.822;2022-07-29T12:10:13;9.80;;;1.90;;
66112;SDS011;52893;52.870;5.822;2022-07-29T12:12:41;5.03;;;2.10;;
66112;SDS011;52893;52.870;5.822;2022-07-29T12:15:13;4.97;;;2.08;;
66112;SDS011;52893;52.870;5.822;2022-07-29T12:17:43;3.00;;;1.80;;
66112;SDS011;52893;52.870;5.822;2022-07-29T12:20:10;5.63;;;2.13;;
66112;SDS011;52893;52.870;5.822;2022-07-29T12:22:39;4.65;;;2.30;;
66112;SDS011;52893;52.870;5.822;2022-07-29T12:25:10;2.63;;;1.70;;
66112;SDS011;52893;52.870;5.822;2022-07-29T12:27:41;6.10;;;2.55;;
66112;SDS011;52893;52.870;5.822;2022-07-29T12:30:10;3.90;;;2.35;;
66112;SDS011;52893;52.870;5.822;2022-07-29T12:32:41;5.53;;;2.70;;
66112;SDS011;52893;52.870;5.822;2022-07-29T12:35:10;6.75;;;2.30;;
66112;SDS011;52893;52.870;5.822;2022-07-29T12:37:39;4.13;;;2.17;;
66112;SDS011;52893;52.870;5.822;2022-07-29T12:40:09;5.53;;;2.40;;
66112;SDS011;52893;52.870;5.822;2022-07-29T12:42:38;7.70;;;2.70;;
66112;SDS011;52893;52.870;5.822;2022-07-29T12:45:05;6.55;;;2.08;;
66112;SDS011;52893;52.870;5.822;2022-07-29T12:47:37;3.80;;;2.17;;
66112;SDS011;52893;52.870;5.822;2022-07-29T12:50:17;7.72;;;2.15;;
66112;SDS011;52893;52.870;5.822;2022-07-29T12:52:45;5.93;;;2.60;;
66112;SDS011;52893;52.870;5.822;2022-07-29T12:55:13;8.23;;;2.55;;
66112;SDS011;52893;52.870;5.822;2022-07-29T12:57:46;4.03;;;2.58;;
66112;SDS011;52893;52.870;5.822;2022-07-29T13:00:15;7.78;;;2.17;;
66112;SDS011;52893;52.870;5.822;2022-07-29T13:02:44;4.80;;;2.83;;
66112;SDS011;52893;52.870;5.822;2022-07-29T13:05:21;9.93;;;2.90;;
66112;SDS011;52893;52.870;5.822;2022-07-29T13:07:49;6.78;;;2.28;;
66112;SDS011;52893;52.870;5.822;2022-07-29T13:10:18;5.97;;;2.45;;
66112;SDS011;52893;52.870;5.822;2022-07-29T13:13:03;9.52;;;2.75;;
66112;SDS011;52893;52.870;5.822;2022-07-29T13:15:31;6.60;;;2.65;;
66112;SDS011;52893;52.870;5.822;2022-07-29T13:18:00;8.98;;;2.75;;
66112;SDS011;52893;52.870;5.822;2022-07-29T13:20:27;5.78;;;2.70;;
66112;SDS011;52893;52.870;5.822;2022-07-29T13:22:56;5.85;;;2.60;;
66112;SDS011;52893;52.870;5.822;2022-07-29T13:25:24;12.75;;;2.70;;
66112;SDS011;52893;52.870;5.822;2022-07-29T13:27:52;9.35;;;2.60;;
66112;SDS011;52893;52.870;5.822;2022-07-29T13:30:21;5.47;;;2.50;;
66112;SDS011;52893;52.870;5.822;2022-07-29T13:32:49;10.38;;;3.20;;
66112;SDS011;52893;52.870;5.822;2022-07-29T13:35:18;12.35;;;3.08;;
66112;SDS011;52893;52.870;5.822;2022-07-29T13:37:46;7.30;;;2.88;;
66112;SDS011;52893;52.870;5.822;2022-07-29T13:40:13;7.65;;;2.97;;
66112;SDS011;52893;52.870;5.822;2022-07-29T13:42:41;6.25;;;2.28;;
66112;SDS011;52893;52.870;5.822;2022-07-29T13:45:09;8.30;;;2.83;;
66112;SDS011;52893;52.870;5.822;2022-07-29T13:47:37;5.20;;;3.13;;
66112;SDS011;52893;52.870;5.822;2022-07-29T13:50:05;7.82;;;2.70;;
66112;SDS011;52893;52.870;5.822;2022-07-29T13:52:36;3.80;;;2.40;;
66112;SDS011;52893;52.870;5.822;2022-07-29T13:55:04;9.52;;;2.60;;
66112;SDS011;52893;52.870;5.822;2022-07-29T13:57:32;5.20;;;2.67;;
66112;SDS011;52893;52.870;5.822;2022-07-29T13:59:59;4.13;;;2.70;;
66112;SDS011;52893;52.870;5.822;2022-07-29T14:02:26;7.28;;;3.15;;
66112;SDS011;52893;52.870;5.822;2022-07-29T14:04:54;6.20;;;2.50;;
66112;SDS011;52893;52.870;5.822;2022-07-29T14:07:21;9.02;;;3.20;;
66112;SDS011;52893;52.870;5.822;2022-07-29T14:09:50;8.63;;;2.67;;
66112;SDS011;52893;52.870;5.822;2022-07-29T14:12:17;4.88;;;2.83;;
66112;SDS011;52893;52.870;5.822;2022-07-29T14:14:44;6.88;;;2.50;;
66112;SDS011;52893;52.870;5.822;2022-07-29T14:17:11;6.40;;;2.88;;
66112;SDS011;52893;52.870;5.822;2022-07-29T14:19:38;8.43;;;3.03;;
66112;SDS011;52893;52.870;5.822;2022-07-29T14:22:06;7.63;;;2.35;;
66112;SDS011;52893;52.870;5.822;2022-07-29T14:24:34;5.18;;;2.08;;
66112;SDS011;52893;52.870;5.822;2022-07-29T14:27:03;7.22;;;2.45;;
66112;SDS011;52893;52.870;5.822;2022-07-29T14:29:31;5.30;;;2.25;;
66112;SDS011;52893;52.870;5.822;2022-07-29T14:31:58;5.32;;;2.28;;
66112;SDS011;52893;52.870;5.822;2022-07-29T14:34:25;6.38;;;2.03;;
66112;SDS011;52893;52.870;5.822;2022-07-29T14:36:52;5.60;;;2.47;;
66112;SDS011;52893;52.870;5.822;2022-07-29T14:39:21;6.10;;;2.65;;
66112;SDS011;52893;52.870;5.822;2022-07-29T14:41:49;5.75;;;2.50;;
66112;SDS011;52893;52.870;5.822;2022-07-29T14:44:18;5.40;;;2.38;;
66112;SDS011;52893;52.870;5.822;2022-07-29T14:46:45;8.05;;;2.72;;
66112;SDS011;52893;52.870;5.822;2022-07-29T14:49:12;5.00;;;2.50;;
66112;SDS011;52893;52.870;5.822;2022-07-29T14:51:39;6.63;;;2.47;;
66112;SDS011;52893;52.870;5.822;2022-07-29T14:54:06;6.65;;;2.50;;
66112;SDS011;52893;52.870;5.822;2022-07-29T14:56:33;4.40;;;2.35;;
66112;SDS011;52893;52.870;5.822;2022-07-29T14:59:00;5.10;;;2.40;;
66112;SDS011;52893;52.870;5.822;2022-07-29T15:01:29;6.78;;;2.35;;
66112;SDS011;52893;52.870;5.822;2022-07-29T15:03:56;8.00;;;2.22;;
66112;SDS011;52893;52.870;5.822;2022-07-29T15:06:23;5.90;;;2.22;;
66112;SDS011;52893;52.870;5.822;2022-07-29T15:08:50;8.13;;;2.45;;
66112;SDS011;52893;52.870;5.822;2022-07-29T15:11:17;10.70;;;2.80;;
66112;SDS011;52893;52.870;5.822;2022-07-29T15:13:44;6.30;;;2.00;;
66112;SDS011;52893;52.870;5.822;2022-07-29T15:16:11;9.35;;;2.40;;
66112;SDS011;52893;52.870;5.822;2022-07-29T15:18:40;6.70;;;2.25;;
66112;SDS011;52893;52.870;5.822;2022-07-29T15:21:07;6.32;;;2.08;;
66112;SDS011;52893;52.870;5.822;2022-07-29T15:23:34;8.82;;;2.40;;
66112;SDS011;52893;52.870;5.822;2022-07-29T15:26:02;3.90;;;2.28;;
66112;SDS011;52893;52.870;5.822;2022-07-29T15:28:29;5.50;;;1.73;;
66112;SDS011;52893;52.870;5.822;2022-07-29T15:30:56;4.90;;;1.67;;